createdAt,value
2019-03-05T00:04:27.035Z,6.70
2019-03-05T00:09:18.896Z,6.60
2019-03-05T00:14:13.009Z,6.60
2019-03-05T00:19:04.663Z,6.60
2019-03-05T00:23:56.374Z,6.60
2019-03-05T00:28:48.285Z,6.60
2019-03-05T00:33:40.412Z,6.60
2019-03-05T00:38:32.448Z,6.60
2019-03-05T00:43:24.436Z,6.60
2019-03-05T00:48:16.493Z,6.60
2019-03-05T00:53:08.395Z,6.60
2019-03-05T00:58:00.417Z,6.60
2019-03-05T01:02:54.373Z,6.60
2019-03-05T01:07:46.064Z,6.60
2019-03-05T01:12:38.250Z,6.60
2019-03-05T01:17:30.228Z,6.60
2019-03-05T01:22:22.057Z,6.60
2019-03-05T01:27:14.024Z,6.60
2019-03-05T01:32:05.954Z,6.70
2019-03-05T01:36:57.957Z,6.70
2019-03-05T01:41:50.036Z,6.70
2019-03-05T01:46:41.709Z,6.80
2019-03-05T01:51:33.557Z,6.70
2019-03-05T01:56:25.240Z,6.70
2019-03-05T02:01:17.206Z,6.60
2019-03-05T02:06:09.565Z,6.60
2019-03-05T02:11:01.140Z,6.60
2019-03-05T02:15:52.865Z,6.60
2019-03-05T02:20:44.603Z,6.50
2019-03-05T02:25:36.651Z,6.40
2019-03-05T02:30:28.463Z,6.40
2019-03-05T02:35:20.469Z,6.30
2019-03-05T02:40:12.323Z,6.20
2019-03-05T02:45:04.118Z,6.10
2019-03-05T02:49:55.946Z,6.10
2019-03-05T02:54:47.948Z,6.00
2019-03-05T02:59:39.754Z,6.00
2019-03-05T03:04:30.889Z,6.00
2019-03-05T03:09:23.060Z,6.00
2019-03-05T03:14:15.098Z,5.90
2019-03-05T03:19:07.149Z,5.90
2019-03-05T03:23:59.122Z,5.90
2019-03-05T03:28:50.783Z,5.80
2019-03-05T03:33:42.878Z,5.80
2019-03-05T03:38:35.029Z,5.70
2019-03-05T03:43:27.097Z,5.80
2019-03-05T03:48:18.814Z,5.80
2019-03-05T03:53:10.572Z,5.70
2019-03-05T03:58:02.378Z,5.70
2019-03-05T04:02:54.555Z,5.70
2019-03-05T04:07:48.236Z,5.70
2019-03-05T04:12:39.674Z,5.70
2019-03-05T04:17:31.471Z,5.70
2019-03-05T04:22:23.348Z,5.70
2019-03-05T04:27:15.392Z,5.80
2019-03-05T04:32:07.393Z,5.80
2019-03-05T04:36:59.275Z,5.70
2019-03-05T04:41:51.346Z,5.80
2019-03-05T04:46:43.494Z,5.70
2019-03-05T04:51:35.417Z,5.80
2019-03-05T04:56:28.079Z,5.80
2019-03-05T05:01:19.897Z,5.90
2019-03-05T05:06:11.601Z,5.90
2019-03-05T05:11:03.640Z,5.90
2019-03-05T05:15:55.463Z,6.00
2019-03-05T05:20:47.457Z,6.00
2019-03-05T05:25:39.457Z,6.00
2019-03-05T05:30:31.540Z,6.00
2019-03-05T05:35:23.506Z,6.00
2019-03-05T05:40:15.545Z,6.10
2019-03-05T05:45:07.503Z,6.10
2019-03-05T05:49:59.473Z,6.10
2019-03-05T05:54:51.497Z,6.10
2019-03-05T05:59:44.500Z,6.10
2019-03-05T06:04:36.752Z,6.10
2019-03-05T06:09:28.723Z,6.10
2019-03-05T06:14:20.538Z,6.10
2019-03-05T06:19:12.410Z,6.10
2019-03-05T06:24:04.193Z,6.00
2019-03-05T06:28:55.920Z,6.00
2019-03-05T06:33:47.815Z,6.00
2019-03-05T06:38:39.798Z,5.90
2019-03-05T06:43:31.772Z,5.90
2019-03-05T06:48:23.700Z,5.80
2019-03-05T06:53:15.734Z,5.80
2019-03-05T06:58:07.587Z,5.80
2019-03-05T07:02:59.650Z,5.70
2019-03-05T07:07:51.580Z,5.70
2019-03-05T07:12:45.509Z,5.60
2019-03-05T07:17:36.864Z,5.50
2019-03-05T07:22:28.880Z,5.50
2019-03-05T07:27:22.608Z,5.40
2019-03-05T07:32:14.139Z,5.30
2019-03-05T07:37:05.717Z,5.20
2019-03-05T07:41:57.607Z,5.10
2019-03-05T07:46:49.332Z,5.00
2019-03-05T07:51:42.099Z,4.90
2019-03-05T07:56:34.147Z,4.90
2019-03-05T08:01:26.109Z,4.80
2019-03-05T08:06:18.173Z,4.80
2019-03-05T08:11:10.032Z,4.70
2019-03-05T08:16:03.678Z,4.70
2019-03-05T08:20:54.713Z,4.70
2019-03-05T08:25:46.586Z,4.70
2019-03-05T08:30:38.653Z,4.80
2019-03-05T08:35:30.865Z,4.90
2019-03-05T08:40:23.099Z,5.00
2019-03-05T08:45:15.239Z,5.10
2019-03-05T08:50:07.065Z,5.20
2019-03-05T08:54:58.909Z,5.40
2019-03-05T08:59:50.955Z,5.50
2019-03-05T09:04:43.052Z,5.60
2019-03-05T09:09:35.943Z,5.90
2019-03-05T09:14:28.346Z,6.10
2019-03-05T09:19:20.411Z,6.30
2019-03-05T09:24:12.313Z,6.20
2019-03-05T09:29:04.273Z,6.10
2019-03-05T09:33:56.327Z,6.10
2019-03-05T09:38:48.632Z,6.10
2019-03-05T09:43:40.676Z,6.30
2019-03-05T09:48:32.710Z,6.60
2019-03-05T09:53:24.580Z,6.60
2019-03-05T09:58:17.062Z,6.60
2019-03-05T10:03:09.156Z,6.70
2019-03-05T10:08:01.135Z,6.70
2019-03-05T10:12:53.392Z,6.70
2019-03-05T10:17:50.452Z,6.70
2019-03-05T10:22:41.482Z,6.70
2019-03-05T10:27:33.616Z,6.60
2019-03-05T10:32:25.618Z,6.80
2019-03-05T10:37:19.805Z,7.00
2019-03-05T10:42:11.161Z,7.30
2019-03-05T10:47:03.465Z,7.40
2019-03-05T10:51:55.309Z,7.60
2019-03-05T10:56:47.172Z,7.70
2019-03-05T11:01:38.960Z,7.80
2019-03-05T11:06:32.828Z,7.80
2019-03-05T11:11:24.405Z,7.80
2019-03-05T11:16:16.452Z,7.90
2019-03-05T11:21:08.843Z,8.30
2019-03-05T11:26:01.388Z,8.90
2019-03-05T11:30:53.520Z,9.20
2019-03-05T11:35:45.509Z,9.20
2019-03-05T11:40:37.582Z,8.90
2019-03-05T11:45:30.325Z,9.20
2019-03-05T11:50:22.429Z,9.40
2019-03-05T11:55:14.254Z,9.20
2019-03-05T12:00:08.034Z,9.00
2019-03-05T12:05:01.362Z,8.90
2019-03-05T12:09:52.913Z,8.70
2019-03-05T12:14:44.688Z,8.60
2019-03-05T12:19:36.320Z,8.60
2019-03-05T12:24:29.315Z,8.60
2019-03-05T12:29:21.431Z,8.60
2019-03-05T12:34:13.474Z,8.60
2019-03-05T12:39:06.069Z,9.00
2019-03-05T12:43:58.124Z,9.60
2019-03-05T12:48:49.944Z,9.60
2019-03-05T12:53:41.796Z,9.50
2019-03-05T12:58:33.802Z,9.50
2019-03-05T13:03:26.742Z,9.30
2019-03-05T13:08:19.591Z,9.60
2019-03-05T13:13:15.947Z,10.20
2019-03-05T13:18:07.237Z,10.80
2019-03-05T13:22:59.322Z,11.40
2019-03-05T13:27:51.961Z,11.80
2019-03-05T13:32:44.125Z,12.20
2019-03-05T13:37:36.278Z,12.20
2019-03-05T13:42:35.343Z,12.00
2019-03-05T13:47:26.607Z,12.30
2019-03-05T13:52:18.264Z,12.50
2019-03-05T13:57:10.311Z,11.90
2019-03-05T14:02:01.775Z,11.70
2019-03-05T14:06:53.674Z,11.30
2019-03-05T14:11:46.586Z,10.90
2019-03-05T14:16:38.453Z,11.10
2019-03-05T14:21:30.758Z,11.40
2019-03-05T14:26:23.409Z,11.90
2019-03-05T14:31:15.241Z,11.90
2019-03-05T14:36:07.317Z,11.70
2019-03-05T14:40:59.235Z,11.40
2019-03-05T14:45:51.981Z,11.20
2019-03-05T14:50:43.871Z,11.20
2019-03-05T14:55:36.171Z,11.10
2019-03-05T15:00:28.156Z,11.10
2019-03-05T15:05:21.022Z,11.00
2019-03-05T15:10:12.849Z,10.80
2019-03-05T15:15:05.158Z,10.90
2019-03-05T15:19:57.210Z,11.00
2019-03-05T15:24:49.214Z,10.80
2019-03-05T15:29:41.428Z,10.60
2019-03-05T15:34:33.430Z,10.50
2019-03-05T15:39:25.529Z,10.40
2019-03-05T15:44:18.662Z,10.40
2019-03-05T15:49:10.631Z,10.40
2019-03-05T15:54:02.704Z,10.30
2019-03-05T15:58:54.759Z,10.30
2019-03-05T16:03:46.787Z,10.30
2019-03-05T16:08:39.741Z,10.40
2019-03-05T16:13:33.525Z,10.30
2019-03-05T16:18:25.103Z,10.20
2019-03-05T16:23:17.408Z,10.20
2019-03-05T16:28:09.498Z,10.20
2019-03-05T16:33:02.062Z,10.10
2019-03-05T16:37:54.227Z,10.10
2019-03-05T16:42:46.432Z,10.10
2019-03-05T16:47:38.469Z,10.10
2019-03-05T16:52:30.393Z,10.00
2019-03-05T16:57:24.368Z,9.90
2019-03-05T17:02:15.929Z,9.80
2019-03-05T17:07:08.015Z,9.70
2019-03-05T17:12:02.206Z,9.60
2019-03-05T17:16:53.698Z,9.50
2019-03-05T17:21:45.513Z,9.40
2019-03-05T17:26:38.223Z,9.40
2019-03-05T17:31:30.020Z,9.30
2019-03-05T17:36:21.848Z,9.10
2019-03-05T17:41:13.612Z,9.10
2019-03-05T17:46:06.025Z,8.90
2019-03-05T17:50:57.870Z,8.80
2019-03-05T17:55:49.662Z,8.60
2019-03-05T18:00:41.796Z,8.60
2019-03-05T18:05:33.661Z,8.40
2019-03-05T18:10:27.339Z,8.40
2019-03-05T18:15:18.772Z,8.40
2019-03-05T18:20:11.306Z,8.30
2019-03-05T18:25:03.214Z,8.30
2019-03-05T18:29:54.957Z,8.30
2019-03-05T18:34:46.674Z,8.30
2019-03-05T18:39:40.622Z,8.30
2019-03-05T18:44:31.930Z,8.30
2019-03-05T18:49:24.309Z,8.30
2019-03-05T18:54:18.384Z,8.40
2019-03-05T18:59:09.785Z,8.40
2019-03-05T19:04:01.557Z,8.30
2019-03-05T19:08:53.581Z,8.10
2019-03-05T19:13:43.709Z,8.00
2019-03-05T19:18:35.305Z,7.80
2019-03-05T19:23:27.277Z,7.70
2019-03-05T19:28:19.325Z,7.60
2019-03-05T19:33:11.157Z,7.40
2019-03-05T19:38:02.865Z,7.40
2019-03-05T19:42:55.333Z,7.30
2019-03-05T19:47:46.911Z,7.30
2019-03-05T19:52:38.439Z,7.20
2019-03-05T19:57:30.522Z,7.10
2019-03-05T20:02:22.375Z,7.10
2019-03-05T20:07:14.211Z,7.10
2019-03-05T20:12:07.283Z,7.00
2019-03-05T20:16:58.355Z,7.00
2019-03-05T20:21:50.009Z,6.90
2019-03-05T20:26:41.898Z,6.90
2019-03-05T20:31:34.280Z,6.90
2019-03-05T20:36:26.234Z,6.80
2019-03-05T20:41:18.274Z,6.90
2019-03-05T20:46:11.919Z,6.90
2019-03-05T20:51:03.136Z,7.00
2019-03-05T20:55:55.460Z,7.00
2019-03-05T21:00:48.016Z,6.90
2019-03-05T21:05:40.401Z,6.90
2019-03-05T21:10:32.674Z,7.00
2019-03-05T21:15:24.859Z,6.90
2019-03-05T21:20:16.562Z,7.00
2019-03-05T21:25:08.596Z,7.10
2019-03-05T21:30:00.390Z,7.10
2019-03-05T21:34:51.514Z,7.10
2019-03-05T21:39:43.315Z,7.00
2019-03-05T21:44:35.262Z,6.90
2019-03-05T21:49:27.197Z,6.80
2019-03-05T21:54:20.214Z,6.70
2019-03-05T21:59:12.668Z,6.70
2019-03-05T22:04:04.821Z,6.70
2019-03-05T22:08:56.518Z,6.60
2019-03-05T22:13:49.379Z,6.70
2019-03-05T22:18:41.002Z,6.70
2019-03-05T22:23:32.797Z,6.70
2019-03-05T22:28:24.973Z,6.70
2019-03-05T22:33:17.265Z,6.70
2019-03-05T22:38:09.097Z,6.60
2019-03-05T22:43:00.883Z,6.60
2019-03-05T22:47:52.744Z,6.70
2019-03-05T22:52:46.111Z,6.70
2019-03-05T22:57:37.888Z,6.70
2019-03-05T23:02:29.566Z,6.70
2019-03-05T23:07:21.995Z,6.70
2019-03-05T23:12:14.013Z,6.70
2019-03-05T23:17:05.880Z,6.70
2019-03-05T23:21:57.388Z,6.70
2019-03-05T23:26:48.824Z,6.70
2019-03-05T23:31:42.975Z,6.80
2019-03-05T23:36:35.093Z,6.80
2019-03-05T23:41:26.709Z,6.80
2019-03-05T23:46:18.611Z,6.80
2019-03-05T23:51:10.270Z,6.80
2019-03-05T23:56:02.826Z,6.80
